Terminal Aerodrome Forecast
Issued by NWS Wilmington, OH

Current Version | Previous Version | Graphics & Text | Print | Product List | Glossary On
Versions: 1 2 3 4 5 6 7 8 9 10 11 12 13 14 15 16 17 18 19 20 21 22 23 24 25 26 27 28
000
FTUS41 KILN 291900 AAB
TAFILN
TAF AMD
KILN 291956Z 2920/3018 17008KT P6SM VCSH OVC015
      TEMPO 2920/2922 5SM -TSRA BR OVC012CB
     FM292200 21010KT P6SM VCSH SCT022 BKN035
     FM300000 22010KT P6SM VCSH BKN035
     FM300300 24008KT P6SM BKN035
     FM301400 24011KT P6SM VCSH BKN040=

USA.gov is the U.S. government's official web portal to all federal, state and local government web resources and services.